Time;durP1;ratioP1;P1;durP2;ratioP2;P2;SDS_P1;SDS_P2;PMS_P1;PMS_P2;Temp;Humidity;BMP_temperature;BMP_pressure;BME280_temperature;BME280_humidity;BME280_pressure;Samples;Min_cycle;Max_cycle;Signal;HPM_P1;HPM_P2
2022/01/16 00:07:10;;;;;;;53.42;32.75;;;;;;;;;;6223080;22;20086;-77
2022/01/16 00:12:13;;;;;;;54.67;37.58;;;;;;;;;;6264287;22;20135;-77
2022/01/16 00:14:42;;;;;;;44.78;31.13;;;;;;;;;;6243387;23;20019;-78
2022/01/16 00:17:08;;;;;;;44.10;30.27;;;;;;;;;;6265090;23;20434;-77
2022/01/16 00:19:39;;;;;;;40.78;26.35;;;;;;;;;;6242603;23;20012;-77
2022/01/16 00:22:12;;;;;;;39.22;23.27;;;;;;;;;;6270738;22;20000;-77
2022/01/16 00:24:41;;;;;;;;;;;;;;;;;;6244863;22;20004;-77
2022/01/16 00:27:31;;;;;;;45.28;24.98;;;;;;;;;;6268673;22;19894;-78
2022/01/16 00:30:00;;;;;;;45.58;25.23;;;;;;;;;;6271367;22;20006;-77
2022/01/16 00:32:29;;;;;;;41.85;24.65;;;;;;;;;;6244574;23;19988;-77
2022/01/16 00:34:56;;;;;;;35.22;21.20;;;;;;;;;;6270307;22;20095;-77
2022/01/16 00:37:30;;;;;;;33.08;20.77;;;;;;;;;;6269154;22;20004;-77
2022/01/16 00:39:59;;;;;;;35.85;20.02;;;;;;;;;;6243970;23;20007;-78
2022/01/16 00:42:26;;;;;;;34.33;20.35;;;;;;;;;;6241517;23;20063;-77
2022/01/16 00:44:53;;;;;;;34.08;20.17;;;;;;;;;;6261386;22;19996;-78
2022/01/16 00:47:47;;;;;;;35.10;20.33;;;;;;;;;;6248100;22;19995;-79
2022/01/16 00:52:58;;;;;;;36.90;22.33;;;;;;;;;;6224131;22;20008;-77
2022/01/16 00:55:44;;;;;;;30.33;19.17;;;;;;;;;;6271292;22;20004;-77
2022/01/16 01:00:53;;;;;;;37.50;21.80;;;;;;;;;;6288910;22;20021;-77
2022/01/16 01:03:21;;;;;;;33.50;19.90;;;;;;;;;;6303512;22;20007;-76
2022/01/16 01:06:13;;;;;;;30.17;18.42;;;;;;;;;;6303320;22;20011;-77
2022/01/16 01:08:57;;;;;;;31.67;18.00;;;;;;;;;;6336161;22;19994;-79
2022/01/16 01:12:03;;;;;;;27.40;16.63;;;;;;;;;;6287598;22;20014;-77
2022/01/16 01:17:10;;;;;;;31.33;18.27;;;;;;;;;;6268608;22;20024;-76
2022/01/16 01:19:36;;;;;;;27.63;17.35;;;;;;;;;;6267509;22;19985;-77
2022/01/16 01:22:07;;;;;;;28.75;18.05;;;;;;;;;;6267109;22;20012;-79
2022/01/16 01:24:35;;;;;;;27.90;18.33;;;;;;;;;;6239811;23;20014;-76
2022/01/16 01:29:49;;;;;;;25.90;15.68;;;;;;;;;;6277860;22;20020;-77
2022/01/16 01:34:52;;;;;;;23.00;14.73;;;;;;;;;;6259943;22;20012;-77
2022/01/16 01:37:18;;;;;;;22.55;15.63;;;;;;;;;;6269023;22;19988;-78
2022/01/16 01:39:46;;;;;;;21.23;14.88;;;;;;;;;;6243743;22;19996;-77
2022/01/16 01:42:18;;;;;;;19.92;13.77;;;;;;;;;;6245680;22;20068;-77
2022/01/16 01:51:03;;;;;;;21.77;15.13;;;;;;;;;;6271806;22;20019;-77
2022/01/16 01:53:29;;;;;;;25.40;15.75;;;;;;;;;;6267091;23;20038;-77
2022/01/16 01:55:55;;;;;;;27.35;17.52;;;;;;;;;;6241694;22;20008;-78
2022/01/16 01:58:21;;;;;;;24.05;16.10;;;;;;;;;;6245123;22;20026;-77
2022/01/16 02:00:48;;;;;;;27.95;18.15;;;;;;;;;;6244468;22;19992;-77
2022/01/16 02:03:22;;;;;;;27.05;17.65;;;;;;;;;;6194028;22;20024;-77
2022/01/16 02:05:50;;;;;;;33.15;22.05;;;;;;;;;;6271429;22;20015;-78
2022/01/16 02:08:16;;;;;;;41.08;24.98;;;;;;;;;;6272133;22;19988;-78
2022/01/16 02:10:43;;;;;;;37.60;24.30;;;;;;;;;;6270310;22;19994;-77
2022/01/16 02:14:08;;;;;;;33.53;21.10;;;;;;;;;;6269437;22;20039;-77
2022/01/16 02:29:06;;;;;;;34.83;22.85;;;;;;;;;;6269272;22;20022;-77
2022/01/16 02:36:56;;;;;;;23.15;16.50;;;;;;;;;;6269695;22;20003;-78
2022/01/16 02:39:45;;;;;;;25.50;17.95;;;;;;;;;;6268542;22;20016;-76
2022/01/16 02:42:50;;;;;;;29.23;18.23;;;;;;;;;;6268697;22;19999;-77
2022/01/16 02:45:35;;;;;;;30.67;17.85;;;;;;;;;;6259073;22;20066;-77
2022/01/16 02:48:18;;;;;;;25.45;16.95;;;;;;;;;;6266710;22;20492;-78
2022/01/16 02:50:44;;;;;;;22.85;15.35;;;;;;;;;;6271470;22;19996;-80
2022/01/16 02:53:12;;;;;;;23.13;14.75;;;;;;;;;;6265331;22;19988;-77
2022/01/16 02:55:43;;;;;;;21.20;14.27;;;;;;;;;;6268547;22;20007;-77
2022/01/16 02:58:10;;;;;;;23.13;14.85;;;;;;;;;;6270390;22;20023;-77
2022/01/16 03:00:38;;;;;;;21.27;14.93;;;;;;;;;;6277891;22;20051;-79
2022/01/16 03:03:05;;;;;;;23.58;15.35;;;;;;;;;;6300480;22;20008;-78
2022/01/16 03:05:33;;;;;;;24.10;15.27;;;;;;;;;;6295347;22;20039;-78
2022/01/16 03:08:14;;;;;;;25.77;15.18;;;;;;;;;;6302892;22;19984;-78
2022/01/16 03:13:20;;;;;;;31.13;17.55;;;;;;;;;;6276356;22;20100;-77
2022/01/16 03:15:53;;;;;;;32.50;18.65;;;;;;;;;;6268281;22;20031;-78
2022/01/16 03:23:38;;;;;;;28.45;16.83;;;;;;;;;;6271826;22;20039;-79
2022/01/16 03:26:24;;;;;;;23.70;15.52;;;;;;;;;;6268813;22;20012;-77
2022/01/16 03:28:54;;;;;;;23.00;15.50;;;;;;;;;;6259742;22;20004;-78
2022/01/16 03:33:56;;;;;;;22.45;13.55;;;;;;;;;;6262803;22;20016;-77
2022/01/16 03:36:46;;;;;;;21.45;14.07;;;;;;;;;;6243064;22;19992;-80
2022/01/16 03:39:39;;;;;;;22.08;13.35;;;;;;;;;;6270259;22;20087;-77
2022/01/16 03:42:10;;;;;;;23.45;13.90;;;;;;;;;;6259238;22;20004;-79
2022/01/16 03:44:36;;;;;;;23.85;13.98;;;;;;;;;;6239787;22;20011;-81
2022/01/16 03:47:05;;;;;;;19.58;13.52;;;;;;;;;;6243956;23;19984;-78
2022/01/16 03:49:39;;;;;;;22.42;14.05;;;;;;;;;;6270684;22;20015;-76
2022/01/16 03:54:49;;;;;;;19.92;13.93;;;;;;;;;;6268509;22;20047;-77
2022/01/16 03:57:15;;;;;;;24.35;14.18;;;;;;;;;;6242939;23;19988;-76
2022/01/16 03:59:43;;;;;;;21.67;14.43;;;;;;;;;;6242571;23;20008;-77
2022/01/16 04:02:09;;;;;;;22.02;13.60;;;;;;;;;;6272904;22;19988;-77
2022/01/16 04:07:18;;;;;;;19.52;12.90;;;;;;;;;;6275727;22;20004;-76
2022/01/16 04:09:49;;;;;;;24.10;15.07;;;;;;;;;;6302495;22;20008;-77
2022/01/16 04:12:20;;;;;;;22.80;14.32;;;;;;;;;;6271884;22;19991;-76
2022/01/16 04:17:23;;;;;;;21.55;13.98;;;;;;;;;;6311368;22;20023;-77
2022/01/16 04:19:53;;;;;;;22.58;14.60;;;;;;;;;;6276375;22;20008;-76
2022/01/16 04:22:41;;;;;;;22.70;13.25;;;;;;;;;;6299763;22;20007;-76
2022/01/16 04:25:18;;;;;;;23.63;14.98;;;;;;;;;;6302084;22;20018;-78
2022/01/16 04:27:45;;;;;;;25.13;15.95;;;;;;;;;;6275998;22;19991;-77
2022/01/16 04:30:11;;;;;;;23.35;15.40;;;;;;;;;;6275404;22;19992;-77
2022/01/16 04:32:39;;;;;;;23.77;15.10;;;;;;;;;;6299120;22;20034;-76
2022/01/16 04:35:06;;;;;;;23.15;15.88;;;;;;;;;;6275280;22;20004;-76
2022/01/16 04:37:32;;;;;;;27.13;17.83;;;;;;;;;;6302528;22;20012;-78
2022/01/16 04:40:05;;;;;;;31.17;18.45;;;;;;;;;;6276821;22;19995;-76
2022/01/16 04:45:35;;;;;;;31.17;19.15;;;;;;;;;;6303264;22;20029;-77
2022/01/16 04:48:03;;;;;;;33.28;20.98;;;;;;;;;;6277228;22;20015;-78
2022/01/16 04:50:32;;;;;;;29.15;19.83;;;;;;;;;;6277473;22;20023;-78
2022/01/16 04:52:58;;;;;;;28.88;19.25;;;;;;;;;;6272889;22;19991;-76
2022/01/16 04:55:57;;;;;;;25.73;18.35;;;;;;;;;;6302807;22;20011;-76
2022/01/16 04:58:43;;;;;;;27.48;16.60;;;;;;;;;;6299046;22;19999;-81
2022/01/16 05:01:09;;;;;;;29.45;15.52;;;;;;;;;;6263168;22;20051;-81
2022/01/16 05:03:39;;;;;;;21.10;14.40;;;;;;;;;;6308799;22;19998;-76
2022/01/16 05:06:06;;;;;;;25.02;15.10;;;;;;;;;;6277228;22;20004;-80
2022/01/16 05:08:32;;;;;;;23.95;15.60;;;;;;;;;;6270805;22;20020;-78
2022/01/16 05:18:53;;;;;;;26.67;16.42;;;;;;;;;;6271614;22;20014;-77
2022/01/16 05:23:58;;;;;;;26.80;15.20;;;;;;;;;;6302016;22;19999;-79
2022/01/16 05:26:28;;;;;;;24.77;16.20;;;;;;;;;;6274986;22;20026;-78
2022/01/16 05:29:23;;;;;;;25.20;15.73;;;;;;;;;;6296234;22;20031;-78
2022/01/16 05:31:50;;;;;;;25.42;15.70;;;;;;;;;;6275101;22;19984;-78
2022/01/16 05:39:49;;;;;;;41.53;23.70;;;;;;;;;;6277042;22;20015;-78
2022/01/16 05:45:00;;;;;;;36.28;20.35;;;;;;;;;;6288400;22;20018;-77
2022/01/16 05:47:46;;;;;;;42.80;25.35;;;;;;;;;;6296636;22;20015;-77
2022/01/16 05:50:33;;;;;;;42.00;23.08;;;;;;;;;;6273452;22;20023;-78
2022/01/16 05:53:11;;;;;;;41.95;26.00;;;;;;;;;;6276472;22;19988;-77
2022/01/16 06:01:12;;;;;;;33.72;20.15;;;;;;;;;;6212110;23;20013;-79
2022/01/16 06:03:39;;;;;;;38.35;23.85;;;;;;;;;;6215067;23;20004;-77
2022/01/16 06:08:43;;;;;;;38.15;23.80;;;;;;;;;;6286634;22;20007;-78
2022/01/16 06:11:10;;;;;;;30.35;19.33;;;;;;;;;;6305348;22;20003;-79
2022/01/16 06:16:35;;;;;;;50.70;30.08;;;;;;;;;;6300136;22;20469;-77
2022/01/16 06:37:15;;;;;;;40.70;25.08;;;;;;;;;;6250376;22;20020;-77
2022/01/16 06:39:42;;;;;;;47.30;28.63;;;;;;;;;;6253996;23;20000;-76
2022/01/16 06:42:08;;;;;;;47.17;26.85;;;;;;;;;;6254318;23;20004;-75
2022/01/16 06:44:53;;;;;;;44.30;28.17;;;;;;;;;;6260613;23;20004;-77
2022/01/16 06:47:19;;;;;;;61.40;33.95;;;;;;;;;;6254834;23;20011;-76
2022/01/16 06:49:45;;;;;;;55.58;36.13;;;;;;;;;;6257872;23;20000;-70
2022/01/16 06:52:12;;;;;;;42.60;29.98;;;;;;;;;;6258625;23;20008;-72
2022/01/16 06:54:39;;;;;;;31.13;20.35;;;;;;;;;;6231774;23;20026;-75
2022/01/16 06:57:11;;;;;;;26.45;17.75;;;;;;;;;;6255284;23;20000;-74
2022/01/16 06:59:54;;;;;;;25.40;16.20;;;;;;;;;;6258430;23;20027;-74
2022/01/16 07:02:22;;;;;;;31.55;20.85;;;;;;;;;;6224663;23;20008;-72
2022/01/16 07:04:48;;;;;;;31.42;20.70;;;;;;;;;;6224876;23;20040;-73
2022/01/16 07:07:14;;;;;;;30.23;19.80;;;;;;;;;;6224876;23;20016;-73
2022/01/16 07:09:46;;;;;;;29.02;18.88;;;;;;;;;;6225287;23;20004;-74
2022/01/16 07:12:41;;;;;;;24.80;16.88;;;;;;;;;;6222468;23;20008;-73
2022/01/16 07:15:09;;;;;;;27.35;18.48;;;;;;;;;;6228411;23;20001;-74
2022/01/16 07:17:46;;;;;;;27.50;18.15;;;;;;;;;;6259247;23;20000;-74
2022/01/16 07:20:14;;;;;;;25.50;17.55;;;;;;;;;;6229662;23;20008;-73
2022/01/16 07:22:40;;;;;;;26.92;17.48;;;;;;;;;;6256673;23;20007;-74
2022/01/16 07:25:09;;;;;;;35.10;21.20;;;;;;;;;;6258975;23;20004;-73
2022/01/16 07:27:36;;;;;;;31.35;23.02;;;;;;;;;;6263261;23;19985;-75
2022/01/16 07:30:02;;;;;;;32.85;22.08;;;;;;;;;;6262980;22;19999;-74
2022/01/16 07:32:28;;;;;;;30.80;20.25;;;;;;;;;;6260023;23;19996;-70
2022/01/16 07:34:56;;;;;;;36.08;22.90;;;;;;;;;;6263219;23;20001;-75
2022/01/16 07:37:22;;;;;;;50.35;29.30;;;;;;;;;;6262208;23;20059;-74
2022/01/16 07:40:11;;;;;;;44.45;27.73;;;;;;;;;;6262200;23;20034;-75
2022/01/16 07:42:37;;;;;;;40.65;24.95;;;;;;;;;;6235850;23;20000;-76
2022/01/16 07:45:04;;;;;;;44.30;26.92;;;;;;;;;;6260413;22;20064;-76
2022/01/16 07:47:30;;;;;;;44.58;25.77;;;;;;;;;;6232813;23;20008;-73
2022/01/16 07:49:57;;;;;;;43.15;25.35;;;;;;;;;;6232406;23;20004;-74
2022/01/16 07:52:25;;;;;;;38.67;23.95;;;;;;;;;;6256574;23;20008;-73
2022/01/16 07:54:51;;;;;;;36.72;24.05;;;;;;;;;;6257779;23;19997;-73
2022/01/16 07:57:17;;;;;;;30.30;19.80;;;;;;;;;;6234565;23;20022;-73
2022/01/16 07:59:50;;;;;;;30.98;20.02;;;;;;;;;;6234561;23;20004;-73
2022/01/16 08:02:20;;;;;;;29.08;18.30;;;;;;;;;;6258619;23;20000;-75
2022/01/16 08:04:52;;;;;;;30.48;19.85;;;;;;;;;;6230905;23;20095;-73
2022/01/16 08:07:18;;;;;;;28.83;19.08;;;;;;;;;;6234021;23;20020;-74
2022/01/16 08:09:47;;;;;;;28.90;19.27;;;;;;;;;;6259518;23;20024;-72
2022/01/16 08:12:41;;;;;;;37.35;25.08;;;;;;;;;;6205675;23;20330;-75
2022/01/16 08:15:08;;;;;;;34.72;23.48;;;;;;;;;;6258562;22;20076;-76
2022/01/16 08:17:45;;;;;;;32.85;20.90;;;;;;;;;;6257220;23;20000;-72
2022/01/16 08:20:32;;;;;;;30.13;19.80;;;;;;;;;;6256170;23;20004;-73
2022/01/16 08:23:01;;;;;;;40.60;24.70;;;;;;;;;;6228155;23;20015;-72
2022/01/16 08:25:28;;;;;;;29.05;18.52;;;;;;;;;;6257479;23;20032;-73
2022/01/16 08:27:54;;;;;;;28.88;18.30;;;;;;;;;;6258614;23;20004;-72
2022/01/16 08:30:23;;;;;;;27.17;18.58;;;;;;;;;;6263031;23;20435;-77
2022/01/16 08:32:50;;;;;;;31.40;20.17;;;;;;;;;;6237383;23;20004;-77
2022/01/16 08:35:16;;;;;;;34.60;22.80;;;;;;;;;;6238227;23;20008;-77
2022/01/16 08:37:45;;;;;;;34.53;23.42;;;;;;;;;;6236568;23;20031;-77
2022/01/16 08:40:11;;;;;;;41.85;26.45;;;;;;;;;;6253847;23;20000;-72
2022/01/16 08:42:40;;;;;;;41.33;27.35;;;;;;;;;;6254508;23;20000;-73
2022/01/16 08:45:06;;;;;;;41.33;25.33;;;;;;;;;;6232671;23;20032;-76
2022/01/16 08:47:33;;;;;;;46.85;27.70;;;;;;;;;;6260044;23;19996;-78
2022/01/16 08:50:04;;;;;;;41.50;25.35;;;;;;;;;;6257563;23;20004;-75
2022/01/16 08:52:30;;;;;;;41.63;25.05;;;;;;;;;;6234435;23;20011;-75
2022/01/16 08:54:57;;;;;;;44.33;27.63;;;;;;;;;;6258721;23;20000;-75
2022/01/16 08:57:23;;;;;;;40.60;25.08;;;;;;;;;;6260041;23;20007;-75
2022/01/16 08:59:49;;;;;;;35.60;23.52;;;;;;;;;;6234728;23;20378;-77
2022/01/16 09:02:15;;;;;;;39.05;24.60;;;;;;;;;;6262692;23;20032;-75
2022/01/16 09:04:42;;;;;;;38.22;25.23;;;;;;;;;;6262780;23;20010;-77
2022/01/16 09:07:10;;;;;;;34.28;21.35;;;;;;;;;;6262008;23;20004;-76
2022/01/16 09:09:36;;;;;;;31.58;20.05;;;;;;;;;;6261477;23;20007;-74
2022/01/16 09:12:06;;;;;;;31.60;18.85;;;;;;;;;;6230165;23;20040;-74
2022/01/16 09:14:32;;;;;;;31.25;19.83;;;;;;;;;;6232732;23;20030;-75
2022/01/16 09:16:58;;;;;;;28.90;19.63;;;;;;;;;;6257838;23;20080;-74
2022/01/16 09:19:24;;;;;;;31.10;20.85;;;;;;;;;;6229005;23;20015;-75
2022/01/16 09:21:51;;;;;;;29.30;19.77;;;;;;;;;;6257974;23;20008;-75
2022/01/16 09:24:17;;;;;;;29.40;19.05;;;;;;;;;;6259663;23;19996;-75
2022/01/16 09:26:44;;;;;;;32.75;20.13;;;;;;;;;;6235567;23;20043;-75
2022/01/16 09:29:10;;;;;;;32.55;20.48;;;;;;;;;;6262239;23;20011;-75
2022/01/16 09:31:37;;;;;;;33.05;19.98;;;;;;;;;;6263278;23;19996;-75
2022/01/16 09:34:06;;;;;;;28.90;18.73;;;;;;;;;;6260057;23;20004;-75
2022/01/16 09:36:32;;;;;;;28.25;19.75;;;;;;;;;;6233087;23;20020;-74
2022/01/16 09:38:58;;;;;;;30.00;20.00;;;;;;;;;;6233050;23;20094;-74
2022/01/16 09:41:27;;;;;;;26.98;18.48;;;;;;;;;;6260060;23;20019;-75
2022/01/16 09:43:54;;;;;;;30.90;20.05;;;;;;;;;;6261695;23;20011;-76
2022/01/16 09:46:21;;;;;;;31.02;19.10;;;;;;;;;;6232050;23;20012;-75
2022/01/16 09:48:47;;;;;;;28.88;19.10;;;;;;;;;;6253472;23;20000;-76
2022/01/16 09:51:13;;;;;;;29.23;20.70;;;;;;;;;;6260432;23;20000;-75
2022/01/16 09:53:42;;;;;;;30.90;19.75;;;;;;;;;;6264134;23;20015;-75
2022/01/16 09:56:09;;;;;;;34.83;22.63;;;;;;;;;;6254611;23;19992;-74
2022/01/16 09:58:47;;;;;;;31.77;21.20;;;;;;;;;;6262595;23;20008;-75
2022/01/16 10:01:24;;;;;;;28.73;20.38;;;;;;;;;;6265815;23;20004;-71
2022/01/16 10:03:53;;;;;;;34.58;23.13;;;;;;;;;;6260228;23;20011;-75
2022/01/16 10:06:21;;;;;;;32.78;19.88;;;;;;;;;;6259694;23;20020;-75
2022/01/16 10:08:51;;;;;;;35.42;21.75;;;;;;;;;;6231118;23;20004;-76
2022/01/16 10:11:22;;;;;;;41.20;25.55;;;;;;;;;;6254416;23;20011;-75
2022/01/16 10:13:57;;;;;;;35.58;23.23;;;;;;;;;;6232209;23;20006;-74
2022/01/16 10:16:31;;;;;;;36.33;24.05;;;;;;;;;;6232417;23;20024;-74
2022/01/16 10:18:59;;;;;;;;;;;;;;;;;;6227671;23;20485;-74
2022/01/16 10:21:32;;;;;;;30.85;19.98;;;;;;;;;;6261626;23;19910;-75
2022/01/16 10:23:59;;;;;;;33.75;22.48;;;;;;;;;;6260460;23;20004;-76
2022/01/16 10:26:28;;;;;;;30.77;21.27;;;;;;;;;;6260092;23;19992;-76
2022/01/16 10:28:54;;;;;;;29.67;19.40;;;;;;;;;;6266245;22;20015;-76
2022/01/16 10:31:25;;;;;;;30.88;19.25;;;;;;;;;;6269934;22;20026;-76
2022/01/16 10:33:51;;;;;;;27.40;19.38;;;;;;;;;;6222347;23;20034;-75
2022/01/16 10:36:34;;;;;;;31.30;18.65;;;;;;;;;;6235834;23;20000;-76
2022/01/16 10:39:12;;;;;;;30.73;20.58;;;;;;;;;;6270547;22;20006;-76
2022/01/16 10:41:43;;;;;;;27.60;16.50;;;;;;;;;;6263510;22;20054;-75
2022/01/16 10:44:29;;;;;;;24.80;16.75;;;;;;;;;;6239099;22;20020;-76
2022/01/16 10:46:55;;;;;;;26.88;17.30;;;;;;;;;;6277151;22;20022;-75
2022/01/16 10:49:25;;;;;;;22.63;14.90;;;;;;;;;;6302528;22;19984;-76
2022/01/16 10:54:46;;;;;;;25.20;16.98;;;;;;;;;;6241909;22;20008;-76
2022/01/16 10:57:20;;;;;;;28.98;17.70;;;;;;;;;;6239108;22;20012;-76
2022/01/16 10:59:46;;;;;;;;;;;;;;;;;;6269151;22;19991;-76
2022/01/16 11:02:13;;;;;;;30.77;21.08;;;;;;;;;;6300107;22;19907;-77
2022/01/16 11:07:18;;;;;;;29.98;19.85;;;;;;;;;;6224770;22;20262;-76
2022/01/16 11:09:47;;;;;;;27.42;16.00;;;;;;;;;;6245896;22;20073;-77
2022/01/16 11:12:17;;;;;;;26.25;16.73;;;;;;;;;;6271987;22;20027;-76
2022/01/16 11:14:57;;;;;;;26.13;15.15;;;;;;;;;;6273204;22;20016;-76
2022/01/16 11:17:46;;;;;;;29.95;16.10;;;;;;;;;;6272629;22;20012;-80
2022/01/16 11:20:14;;;;;;;23.35;15.40;;;;;;;;;;6226223;23;20008;-75
2022/01/16 11:23:04;;;;;;;28.92;14.68;;;;;;;;;;6236747;23;20032;-77
2022/01/16 11:25:33;;;;;;;26.83;15.43;;;;;;;;;;6234574;23;20008;-76
2022/01/16 11:28:19;;;;;;;25.95;13.57;;;;;;;;;;6235137;23;20032;-76
2022/01/16 11:30:50;;;;;;;29.77;17.33;;;;;;;;;;6265422;23;20031;-75
2022/01/16 11:33:17;;;;;;;25.75;15.05;;;;;;;;;;6262364;23;20016;-77
2022/01/16 11:35:46;;;;;;;79.63;42.75;;;;;;;;;;6235296;23;20028;-76
2022/01/16 11:38:12;;;;;;;26.65;14.63;;;;;;;;;;6235628;23;20008;-77
2022/01/16 11:40:45;;;;;;;18.42;10.88;;;;;;;;;;6262191;23;20091;-77
2022/01/16 11:43:32;;;;;;;23.10;11.55;;;;;;;;;;6261822;23;20000;-76
2022/01/16 11:46:06;;;;;;;20.10;11.27;;;;;;;;;;6259795;23;20012;-77
2022/01/16 11:48:53;;;;;;;22.70;10.18;;;;;;;;;;6258203;23;19997;-77
2022/01/16 11:51:36;;;;;;;21.23;11.15;;;;;;;;;;6256604;23;20003;-73
2022/01/16 11:54:04;;;;;;;31.55;15.35;;;;;;;;;;6226740;23;20011;-77
2022/01/16 11:56:42;;;;;;;25.20;13.27;;;;;;;;;;6225035;23;20014;-76
2022/01/16 11:59:11;;;;;;;25.98;12.57;;;;;;;;;;6253937;23;20479;-76
2022/01/16 12:01:45;;;;;;;28.00;13.35;;;;;;;;;;6248111;22;20026;-77
2022/01/16 12:04:49;;;;;;;25.83;12.43;;;;;;;;;;6283880;22;20008;-76
2022/01/16 12:07:19;;;;;;;;;;;;;;;;;;6106183;23;20511;-76
2022/01/16 12:09:50;;;;;;;21.25;9.13;;;;;;;;;;6127250;23;19921;-76
2022/01/16 12:12:16;;;;;;;22.65;11.45;;;;;;;;;;6129574;23;20002;-76
2022/01/16 12:14:57;;;;;;;17.65;8.80;;;;;;;;;;6128081;23;20002;-76
2022/01/16 12:17:30;;;;;;;21.92;8.80;;;;;;;;;;6130268;23;20321;-75
2022/01/16 12:19:57;;;;;;;25.48;16.27;;;;;;;;;;6128308;23;20025;-76
2022/01/16 12:22:42;;;;;;;15.13;7.70;;;;;;;;;;6134572;23;20009;-75
2022/01/16 12:25:33;;;;;;;15.82;6.85;;;;;;;;;;6137108;23;20014;-74
2022/01/16 12:28:02;;;;;;;10.98;6.78;;;;;;;;;;6127253;23;20036;-75
2022/01/16 12:30:32;;;;;;;17.25;7.55;;;;;;;;;;6118086;23;20002;-75
2022/01/16 12:32:59;;;;;;;13.88;8.25;;;;;;;;;;6135046;23;20059;-75
2022/01/16 12:35:45;;;;;;;12.48;8.43;;;;;;;;;;6108955;23;20050;-74
2022/01/16 12:38:11;;;;;;;14.45;7.82;;;;;;;;;;6218615;22;20019;-75
2022/01/16 12:40:38;;;;;;;12.35;7.93;;;;;;;;;;6284846;22;20019;-76
2022/01/16 12:43:08;;;;;;;14.90;8.10;;;;;;;;;;6256103;22;20006;-72
2022/01/16 12:45:55;;;;;;;14.18;8.00;;;;;;;;;;6261087;22;20027;-73
2022/01/16 12:48:24;;;;;;;13.30;9.05;;;;;;;;;;6252913;22;20000;-74
2022/01/16 12:50:51;;;;;;;14.75;9.15;;;;;;;;;;6279464;22;20101;-76
2022/01/16 12:53:36;;;;;;;11.90;7.68;;;;;;;;;;6251129;22;20042;-75
2022/01/16 12:56:34;;;;;;;13.23;7.38;;;;;;;;;;6276941;22;20326;-74
2022/01/16 12:59:11;;;;;;;14.63;7.53;;;;;;;;;;6124310;23;20009;-75
2022/01/16 13:01:42;;;;;;;15.77;9.00;;;;;;;;;;6123850;23;20017;-75
2022/01/16 13:04:16;;;;;;;11.88;7.22;;;;;;;;;;6100236;23;20030;-74
2022/01/16 13:06:43;;;;;;;12.98;7.38;;;;;;;;;;6123887;23;20417;-75
2022/01/16 13:09:10;;;;;;;13.23;7.18;;;;;;;;;;6098618;23;20588;-73
2022/01/16 13:11:37;;;;;;;12.68;7.35;;;;;;;;;;6123845;23;20013;-74
2022/01/16 13:14:07;;;;;;;13.55;8.20;;;;;;;;;;6124483;23;20020;-74
2022/01/16 13:16:35;;;;;;;15.65;8.75;;;;;;;;;;6124346;23;20002;-76
2022/01/16 13:19:04;;;;;;;14.15;7.97;;;;;;;;;;6100459;23;20085;-75
2022/01/16 13:21:46;;;;;;;14.20;7.30;;;;;;;;;;6100460;23;20006;-76
2022/01/16 13:24:32;;;;;;;33.33;9.15;;;;;;;;;;6102201;23;20026;-74
2022/01/16 13:26:59;;;;;;;14.25;8.23;;;;;;;;;;6038933;23;20015;-74
2022/01/16 13:29:25;;;;;;;12.13;7.68;;;;;;;;;;6038733;23;20444;-73
2022/01/16 13:31:52;;;;;;;10.85;7.25;;;;;;;;;;6038123;23;20007;-75
2022/01/16 13:34:20;;;;;;;11.70;7.25;;;;;;;;;;6081311;23;20021;-74
2022/01/16 13:36:56;;;;;;;10.98;6.90;;;;;;;;;;6154643;23;20017;-74
2022/01/16 13:39:36;;;;;;;13.82;8.60;;;;;;;;;;6129207;23;20096;-75
2022/01/16 13:42:37;;;;;;;15.02;8.60;;;;;;;;;;6130067;23;20001;-74
2022/01/16 13:45:18;;;;;;;12.15;8.43;;;;;;;;;;6154458;23;20016;-76
2022/01/16 13:48:02;;;;;;;15.35;9.13;;;;;;;;;;6129223;23;20061;-74
2022/01/16 13:50:31;;;;;;;14.85;9.35;;;;;;;;;;6132191;23;20420;-77
2022/01/16 13:53:02;;;;;;;17.63;11.45;;;;;;;;;;6160540;23;20005;-74
2022/01/16 13:55:29;;;;;;;18.98;11.45;;;;;;;;;;6136707;23;20325;-76
2022/01/16 13:57:58;;;;;;;18.92;11.48;;;;;;;;;;6135539;23;20009;-75
2022/01/16 14:00:29;;;;;;;19.42;13.13;;;;;;;;;;6164852;23;20041;-75
2022/01/16 14:03:09;;;;;;;18.85;13.18;;;;;;;;;;6144594;22;20008;-76
2022/01/16 14:05:40;;;;;;;22.15;13.23;;;;;;;;;;6282512;22;20336;-75
2022/01/16 14:08:17;;;;;;;30.50;18.73;;;;;;;;;;6276052;22;20030;-76
2022/01/16 14:10:43;;;;;;;25.65;18.13;;;;;;;;;;6295414;22;19995;-75
2022/01/16 14:13:10;;;;;;;32.10;18.58;;;;;;;;;;6320957;22;20006;-74
2022/01/16 14:15:40;;;;;;;28.30;17.05;;;;;;;;;;6319589;22;20014;-76
2022/01/16 14:18:27;;;;;;;27.05;17.08;;;;;;;;;;6318572;22;20038;-74
2022/01/16 14:21:58;;;;;;;29.02;17.95;;;;;;;;;;6292300;22;19987;-78
2022/01/16 14:23:40;;;;;;;26.35;16.98;;;;;;;;;;6316305;22;20011;-74
2022/01/16 14:26:08;;;;;;;28.17;19.15;;;;;;;;;;6291247;22;20038;-72
2022/01/16 14:28:57;;;;;;;27.98;18.88;;;;;;;;;;6319663;22;20302;-74
2022/01/16 14:31:25;;;;;;;32.85;20.13;;;;;;;;;;6321644;22;20055;-73
2022/01/16 14:33:51;;;;;;;29.98;19.80;;;;;;;;;;6296147;22;20027;-74
2022/01/16 14:36:31;;;;;;;35.05;19.77;;;;;;;;;;6322584;22;20003;-74
2022/01/16 14:38:57;;;;;;;29.90;18.60;;;;;;;;;;6319458;22;20392;-71
2022/01/16 14:41:38;;;;;;;32.78;19.40;;;;;;;;;;6319022;22;20001;-71
2022/01/16 14:44:06;;;;;;;32.20;20.27;;;;;;;;;;6316790;22;20003;-72
2022/01/16 14:46:32;;;;;;;28.52;18.65;;;;;;;;;;6286100;22;20018;-73
2022/01/16 14:49:04;;;;;;;32.15;20.27;;;;;;;;;;6312111;22;20007;-71
2022/01/16 14:51:37;;;;;;;34.17;21.48;;;;;;;;;;6315334;22;20075;-71
2022/01/16 14:54:22;;;;;;;38.67;24.92;;;;;;;;;;6234098;22;20005;-71
2022/01/16 14:56:57;;;;;;;42.78;28.17;;;;;;;;;;6313560;22;20006;-71
2022/01/16 14:59:42;;;;;;;;;;;;;;;;;;;;;
2022/01/16 15:02:09;;;;;;;51.88;29.95;;;;;;;;;;6313209;22;20471;-73
2022/01/16 15:04:35;;;;;;;44.40;29.73;;;;;;;;;;6312420;22;19995;-76
2022/01/16 15:09:50;;;;;;;45.45;30.75;;;;;;;;;;6320605;22;20512;-78
2022/01/16 15:12:17;;;;;;;45.95;30.58;;;;;;;;;;6320795;22;20424;-78
2022/01/16 15:14:45;;;;;;;45.30;30.52;;;;;;;;;;6316565;22;20022;-78
2022/01/16 15:17:11;;;;;;;46.10;29.80;;;;;;;;;;6288745;22;20055;-78
2022/01/16 15:19:45;;;;;;;46.28;31.38;;;;;;;;;;6292584;22;20003;-78
2022/01/16 15:22:24;;;;;;;50.67;30.45;;;;;;;;;;6320350;22;20008;-78
2022/01/16 15:24:54;;;;;;;45.72;30.10;;;;;;;;;;6293628;22;20012;-78
2022/01/16 15:27:22;;;;;;;55.90;34.80;;;;;;;;;;6294816;22;20062;-78
2022/01/16 15:29:48;;;;;;;56.97;36.75;;;;;;;;;;6317631;22;20003;-78
2022/01/16 15:32:14;;;;;;;59.65;38.03;;;;;;;;;;6291036;22;20333;-78
2022/01/16 15:34:42;;;;;;;58.95;38.85;;;;;;;;;;6294494;22;20003;-78
2022/01/16 15:37:09;;;;;;;65.03;41.60;;;;;;;;;;6282841;22;20421;-73
2022/01/16 15:39:35;;;;;;;82.32;48.95;;;;;;;;;;6313152;22;20019;-75
2022/01/16 15:42:02;;;;;;;77.88;46.70;;;;;;;;;;6315298;22;20046;-75
2022/01/16 15:44:32;;;;;;;85.82;49.83;;;;;;;;;;6312138;22;19995;-74
2022/01/16 15:47:04;;;;;;;78.25;49.08;;;;;;;;;;6309502;22;20011;-75
2022/01/16 15:49:30;;;;;;;78.82;53.78;;;;;;;;;;6281088;22;20034;-74
2022/01/16 15:51:56;;;;;;;66.40;42.88;;;;;;;;;;6308365;22;20461;-72
2022/01/16 15:54:22;;;;;;;60.70;39.03;;;;;;;;;;6309572;22;20000;-75
2022/01/16 15:56:49;;;;;;;64.75;40.58;;;;;;;;;;6313489;22;20006;-75
2022/01/16 15:59:17;;;;;;;65.47;42.90;;;;;;;;;;6296191;22;20007;-72
2022/01/16 16:01:45;;;;;;;63.58;41.63;;;;;;;;;;6303121;22;20003;-74
2022/01/16 16:04:15;;;;;;;66.32;42.40;;;;;;;;;;6300885;22;19999;-72
2022/01/16 16:06:44;;;;;;;63.97;39.78;;;;;;;;;;6322865;22;20017;-72
2022/01/16 16:09:11;;;;;;;66.88;43.20;;;;;;;;;;6319348;22;20019;-73
2022/01/16 16:11:46;;;;;;;71.10;45.90;;;;;;;;;;6326758;22;20006;-72
2022/01/16 16:14:38;;;;;;;75.32;48.53;;;;;;;;;;6327237;22;19991;-73
2022/01/16 16:17:33;;;;;;;76.15;46.60;;;;;;;;;;6329514;22;19991;-73
2022/01/16 16:20:21;;;;;;;84.05;48.40;;;;;;;;;;6253916;22;20051;-73
2022/01/16 16:22:56;;;;;;;94.80;53.85;;;;;;;;;;6260780;22;20015;-73
2022/01/16 16:25:37;;;;;;;88.03;52.78;;;;;;;;;;6235725;23;20034;-73
2022/01/16 16:28:04;;;;;;;94.28;56.88;;;;;;;;;;6256863;23;20392;-73
2022/01/16 16:30:32;;;;;;;91.28;54.72;;;;;;;;;;6258711;23;20000;-72
2022/01/16 16:33:19;;;;;;;95.40;56.22;;;;;;;;;;6260819;23;19989;-73
2022/01/16 16:35:49;;;;;;;91.75;57.47;;;;;;;;;;6215341;23;20015;-73
2022/01/16 16:38:18;;;;;;;100.32;59.58;;;;;;;;;;6204034;23;20142;-78
2022/01/16 16:40:47;;;;;;;118.38;69.10;;;;;;;;;;6252667;23;20339;-74
2022/01/16 16:43:19;;;;;;;125.05;74.68;;;;;;;;;;6255502;23;20369;-73
2022/01/16 16:45:45;;;;;;;130.27;78.90;;;;;;;;;;6253282;23;20016;-75
2022/01/16 16:48:12;;;;;;;144.23;84.88;;;;;;;;;;6237134;23;20424;-71
2022/01/16 16:50:46;;;;;;;137.75;74.70;;;;;;;;;;6258399;23;20007;-71
2022/01/16 16:53:37;;;;;;;126.18;74.00;;;;;;;;;;6279357;22;20065;-72